sensor_id;sensor_type;location;lat;lon;timestamp;pressure;altitude;pressure_sealevel;temperature;humidity
17505;BME280;8870;50.950;11.762;2023-03-19T00:02:29;98038.31;;;10.33;100.00
17505;BME280;8870;50.950;11.762;2023-03-19T00:07:54;98031.72;;;10.36;100.00
17505;BME280;8870;50.950;11.762;2023-03-19T00:13:28;98031.28;;;10.40;100.00
17505;BME280;8870;50.950;11.762;2023-03-19T00:18:46;98026.22;;;10.45;100.00
17505;BME280;8870;50.950;11.762;2023-03-19T00:24:18;98026.03;;;10.47;100.00
17505;BME280;8870;50.950;11.762;2023-03-19T00:29:39;98024.19;;;10.47;100.00
17505;BME280;8870;50.950;11.762;2023-03-19T00:35:11;98030.25;;;10.50;100.00
17505;BME280;8870;50.950;11.762;2023-03-19T00:40:29;98028.38;;;10.50;100.00
17505;BME280;8870;50.950;11.762;2023-03-19T00:46:03;98031.75;;;10.52;100.00
17505;BME280;8870;50.950;11.762;2023-03-19T00:51:23;98038.34;;;10.50;100.00
17505;BME280;8870;50.950;11.762;2023-03-19T00:56:55;98022.16;;;10.50;100.00
17505;BME280;8870;50.950;11.762;2023-03-19T01:02:16;98022.66;;;10.53;100.00
17505;BME280;8870;50.950;11.762;2023-03-19T01:07:47;98022.84;;;10.52;100.00
17505;BME280;8870;50.950;11.762;2023-03-19T01:13:18;98024.19;;;10.47;100.00
17505;BME280;8870;50.950;11.762;2023-03-19T01:18:40;98028.22;;;10.43;100.00
17505;BME280;8870;50.950;11.762;2023-03-19T01:24:12;98026.38;;;10.44;100.00
17505;BME280;8870;50.950;11.762;2023-03-19T01:29:38;98020.50;;;10.40;100.00
17505;BME280;8870;50.950;11.762;2023-03-19T01:35:30;98022.63;;;10.37;100.00
17505;BME280;8870;50.950;11.762;2023-03-19T01:40:51;98018.44;;;10.34;100.00
17505;BME280;8870;50.950;11.762;2023-03-19T01:46:26;98015.44;;;10.29;100.00
17505;BME280;8870;50.950;11.762;2023-03-19T01:51:52;98015.44;;;10.29;100.00
17505;BME280;8870;50.950;11.762;2023-03-19T01:57:45;98003.47;;;10.31;100.00
17505;BME280;8870;50.950;11.762;2023-03-19T02:03:19;98016.94;;;10.23;100.00
17505;BME280;8870;50.950;11.762;2023-03-19T02:09:01;98016.78;;;10.25;100.00
17505;BME280;8870;50.950;11.762;2023-03-19T02:14:20;98014.41;;;10.22;100.00
17505;BME280;8870;50.950;11.762;2023-03-19T02:19:56;98017.81;;;10.15;100.00
17505;BME280;8870;50.950;11.762;2023-03-19T02:25:23;98029.22;;;10.09;100.00
17505;BME280;8870;50.950;11.762;2023-03-19T02:31:00;98015.59;;;10.02;100.00
17505;BME280;8870;50.950;11.762;2023-03-19T02:36:22;98015.09;;;9.99;100.00
17505;BME280;8870;50.950;11.762;2023-03-19T02:41:55;98020.13;;;9.94;100.00
17505;BME280;8870;50.950;11.762;2023-03-19T02:47:17;98018.78;;;9.81;100.00
17505;BME280;8870;50.950;11.762;2023-03-19T02:52:50;98021.28;;;9.66;100.00
17505;BME280;8870;50.950;11.762;2023-03-19T02:58:08;98019.59;;;9.65;100.00
17505;BME280;8870;50.950;11.762;2023-03-19T03:03:42;98020.59;;;9.56;100.00
17505;BME280;8870;50.950;11.762;2023-03-19T03:09:01;98027.97;;;9.54;100.00
17505;BME280;8870;50.950;11.762;2023-03-19T03:14:35;98029.66;;;9.55;100.00
17505;BME280;8870;50.950;11.762;2023-03-19T03:19:57;98033.16;;;9.47;100.00
17505;BME280;8870;50.950;11.762;2023-03-19T03:25:29;98029.97;;;9.44;100.00
17505;BME280;8870;50.950;11.762;2023-03-19T03:30:47;98034.50;;;9.35;100.00
17505;BME280;8870;50.950;11.762;2023-03-19T03:36:23;98035.13;;;9.29;100.00
17505;BME280;8870;50.950;11.762;2023-03-19T03:41:41;98028.72;;;9.21;100.00
17505;BME280;8870;50.950;11.762;2023-03-19T03:47:13;98033.72;;;9.16;100.00
17505;BME280;8870;50.950;11.762;2023-03-19T03:52:47;98021.28;;;9.07;100.00
17505;BME280;8870;50.950;11.762;2023-03-19T03:58:18;98028.28;;;9.00;100.00
17505;BME280;8870;50.950;11.762;2023-03-19T04:03:36;98029.41;;;8.89;100.00
17505;BME280;8870;50.950;11.762;2023-03-19T04:09:11;98036.28;;;8.83;100.00
17505;BME280;8870;50.950;11.762;2023-03-19T04:14:29;98044.97;;;8.77;100.00
17505;BME280;8870;50.950;11.762;2023-03-19T04:20:01;98047.59;;;8.69;100.00
17505;BME280;8870;50.950;11.762;2023-03-19T04:25:23;98042.19;;;8.60;100.00
17505;BME280;8870;50.950;11.762;2023-03-19T04:30:58;98051.84;;;8.53;100.00
17505;BME280;8870;50.950;11.762;2023-03-19T04:36:18;98050.25;;;8.42;100.00
17505;BME280;8870;50.950;11.762;2023-03-19T04:41:53;98061.59;;;8.36;100.00
17505;BME280;8870;50.950;11.762;2023-03-19T04:47:30;98067.09;;;8.26;100.00
17505;BME280;8870;50.950;11.762;2023-03-19T04:52:49;98076.38;;;8.14;100.00
17505;BME280;8870;50.950;11.762;2023-03-19T04:58:25;98086.88;;;8.07;100.00
17505;BME280;8870;50.950;11.762;2023-03-19T05:03:43;98069.56;;;8.01;100.00
17505;BME280;8870;50.950;11.762;2023-03-19T05:09:16;98071.00;;;7.96;100.00
17505;BME280;8870;50.950;11.762;2023-03-19T05:14:37;98082.19;;;7.91;100.00
17505;BME280;8870;50.950;11.762;2023-03-19T05:20:24;98086.00;;;7.89;100.00
17505;BME280;8870;50.950;11.762;2023-03-19T05:25:50;98088.03;;;7.86;100.00
17505;BME280;8870;50.950;11.762;2023-03-19T05:32:01;98090.53;;;7.88;100.00
17505;BME280;8870;50.950;11.762;2023-03-19T05:37:19;98100.13;;;7.91;100.00
17505;BME280;8870;50.950;11.762;2023-03-19T05:42:50;98098.13;;;7.93;100.00
17505;BME280;8870;50.950;11.762;2023-03-19T05:48:11;98110.53;;;7.94;100.00
17505;BME280;8870;50.950;11.762;2023-03-19T05:53:45;98110.25;;;7.97;100.00
17505;BME280;8870;50.950;11.762;2023-03-19T05:59:23;98107.25;;;8.00;100.00
17505;BME280;8870;50.950;11.762;2023-03-19T06:05:18;98114.88;;;8.05;100.00
17505;BME280;8870;50.950;11.762;2023-03-19T06:10:49;98125.44;;;8.06;100.00
17505;BME280;8870;50.950;11.762;2023-03-19T06:16:24;98130.72;;;8.16;100.00
17505;BME280;8870;50.950;11.762;2023-03-19T06:21:58;98130.97;;;8.23;100.00
17505;BME280;8870;50.950;11.762;2023-03-19T06:27:17;98137.09;;;8.33;100.00
17505;BME280;8870;50.950;11.762;2023-03-19T06:33:12;98137.41;;;8.48;100.00
17505;BME280;8870;50.950;11.762;2023-03-19T06:38:34;98137.88;;;8.61;100.00
17505;BME280;8870;50.950;11.762;2023-03-19T06:44:05;98126.56;;;8.76;100.00
17505;BME280;8870;50.950;11.762;2023-03-19T06:49:23;98134.03;;;8.90;100.00
17505;BME280;8870;50.950;11.762;2023-03-19T06:54:58;98116.00;;;9.09;100.00
17505;BME280;8870;50.950;11.762;2023-03-19T07:00:17;98135.91;;;9.24;100.00
17505;BME280;8870;50.950;11.762;2023-03-19T07:05:50;98128.94;;;9.40;100.00
17505;BME280;8870;50.950;11.762;2023-03-19T07:11:11;98124.94;;;9.52;100.00
17505;BME280;8870;50.950;11.762;2023-03-19T07:16:43;98133.41;;;9.66;100.00
17505;BME280;8870;50.950;11.762;2023-03-19T07:22:02;98152.56;;;9.71;100.00
17505;BME280;8870;50.950;11.762;2023-03-19T07:27:36;98153.63;;;9.78;100.00
17505;BME280;8870;50.950;11.762;2023-03-19T07:32:54;98168.09;;;9.77;100.00
17505;BME280;8870;50.950;11.762;2023-03-19T07:38:25;98168.63;;;9.89;100.00
17505;BME280;8870;50.950;11.762;2023-03-19T07:43:46;98174.53;;;9.93;100.00
17505;BME280;8870;50.950;11.762;2023-03-19T07:49:17;98168.84;;;10.04;100.00
17505;BME280;8870;50.950;11.762;2023-03-19T07:54:36;98176.63;;;10.15;100.00
17505;BME280;8870;50.950;11.762;2023-03-19T08:00:15;98169.38;;;10.24;100.00
17505;BME280;8870;50.950;11.762;2023-03-19T08:05:34;98167.88;;;10.22;100.00
17505;BME280;8870;50.950;11.762;2023-03-19T08:11:05;98151.53;;;10.23;100.00
17505;BME280;8870;50.950;11.762;2023-03-19T08:16:27;98158.59;;;10.24;100.00
17505;BME280;8870;50.950;11.762;2023-03-19T08:21:58;98158.13;;;10.37;100.00
17505;BME280;8870;50.950;11.762;2023-03-19T08:27:16;98174.69;;;10.51;100.00
17505;BME280;8870;50.950;11.762;2023-03-19T08:39:21;98176.69;;;10.90;100.00
17505;BME280;8870;50.950;11.762;2023-03-19T08:44:52;98187.97;;;11.10;100.00
17505;BME280;8870;50.950;11.762;2023-03-19T08:50:10;98184.41;;;11.26;100.00
17505;BME280;8870;50.950;11.762;2023-03-19T08:55:50;98184.38;;;11.43;100.00
17505;BME280;8870;50.950;11.762;2023-03-19T09:01:10;98192.09;;;11.54;100.00
17505;BME280;8870;50.950;11.762;2023-03-19T09:06:41;98190.72;;;11.66;100.00
17505;BME280;8870;50.950;11.762;2023-03-19T09:12:02;98189.31;;;11.79;100.00
17505;BME280;8870;50.950;11.762;2023-03-19T09:17:28;98191.28;;;11.93;100.00
17505;BME280;8870;50.950;11.762;2023-03-19T09:22:59;98194.09;;;12.08;100.00
17505;BME280;8870;50.950;11.762;2023-03-19T09:28:23;98194.00;;;12.25;100.00
17505;BME280;8870;50.950;11.762;2023-03-19T09:33:55;98197.97;;;12.37;100.00
17505;BME280;8870;50.950;11.762;2023-03-19T09:39:13;98208.38;;;12.48;100.00
17505;BME280;8870;50.950;11.762;2023-03-19T09:44:47;98209.47;;;12.62;100.00
17505;BME280;8870;50.950;11.762;2023-03-19T09:50:10;98209.06;;;12.74;100.00
17505;BME280;8870;50.950;11.762;2023-03-19T09:55:46;98218.13;;;12.81;100.00
17505;BME280;8870;50.950;11.762;2023-03-19T10:01:19;98211.06;;;12.95;100.00
17505;BME280;8870;50.950;11.762;2023-03-19T10:06:54;98229.84;;;12.97;100.00
17505;BME280;8870;50.950;11.762;2023-03-19T10:12:26;98223.94;;;12.70;100.00
17505;BME280;8870;50.950;11.762;2023-03-19T10:18:10;98234.63;;;12.40;100.00
17505;BME280;8870;50.950;11.762;2023-03-19T10:23:33;98243.81;;;12.22;100.00
17505;BME280;8870;50.950;11.762;2023-03-19T10:29:09;98255.22;;;12.01;100.00
17505;BME280;8870;50.950;11.762;2023-03-19T10:34:31;98260.16;;;11.81;100.00
17505;BME280;8870;50.950;11.762;2023-03-19T10:40:13;98267.63;;;11.62;100.00
17505;BME280;8870;50.950;11.762;2023-03-19T10:45:36;98276.75;;;11.53;100.00
17505;BME280;8870;50.950;11.762;2023-03-19T10:51:14;98276.91;;;11.43;100.00
17505;BME280;8870;50.950;11.762;2023-03-19T10:56:35;98271.03;;;11.39;100.00
17505;BME280;8870;50.950;11.762;2023-03-19T11:02:15;98289.75;;;11.33;100.00
17505;BME280;8870;50.950;11.762;2023-03-19T11:07:48;98295.31;;;11.15;100.00
17505;BME280;8870;50.950;11.762;2023-03-19T11:13:23;98296.66;;;11.10;100.00
17505;BME280;8870;50.950;11.762;2023-03-19T11:18:47;98307.59;;;11.09;100.00
17505;BME280;8870;50.950;11.762;2023-03-19T11:24:22;98308.28;;;11.11;100.00
17505;BME280;8870;50.950;11.762;2023-03-19T11:29:42;98297.69;;;11.09;100.00
17505;BME280;8870;50.950;11.762;2023-03-19T11:35:20;98313.16;;;11.07;100.00
17505;BME280;8870;50.950;11.762;2023-03-19T11:40:49;98308.44;;;10.85;100.00
17505;BME280;8870;50.950;11.762;2023-03-19T11:46:38;98312.44;;;10.81;100.00
17505;BME280;8870;50.950;11.762;2023-03-19T11:52:07;98314.28;;;10.72;100.00
17505;BME280;8870;50.950;11.762;2023-03-19T11:58:01;98320.84;;;10.61;100.00
17505;BME280;8870;50.950;11.762;2023-03-19T12:09:36;98330.25;;;10.57;100.00
17505;BME280;8870;50.950;11.762;2023-03-19T12:15:08;98339.84;;;10.59;100.00
17505;BME280;8870;50.950;11.762;2023-03-19T12:20:52;98329.94;;;10.68;100.00
17505;BME280;8870;50.950;11.762;2023-03-19T12:26:17;98329.13;;;10.76;100.00
17505;BME280;8870;50.950;11.762;2023-03-19T12:32:13;98325.75;;;10.82;100.00
17505;BME280;8870;50.950;11.762;2023-03-19T12:37:37;98322.59;;;10.95;100.00
17505;BME280;8870;50.950;11.762;2023-03-19T12:43:16;98318.56;;;10.99;100.00
17505;BME280;8870;50.950;11.762;2023-03-19T12:48:43;98323.28;;;11.05;100.00
17505;BME280;8870;50.950;11.762;2023-03-19T12:54:22;98317.88;;;11.14;100.00
17505;BME280;8870;50.950;11.762;2023-03-19T12:59:49;98309.97;;;11.20;100.00
17505;BME280;8870;50.950;11.762;2023-03-19T13:05:34;98313.88;;;11.34;100.00
17505;BME280;8870;50.950;11.762;2023-03-19T13:10:57;98313.50;;;11.54;100.00
17505;BME280;8870;50.950;11.762;2023-03-19T13:16:37;98299.16;;;11.70;100.00
17505;BME280;8870;50.950;11.762;2023-03-19T13:22:05;98301.44;;;11.90;100.00
17505;BME280;8870;50.950;11.762;2023-03-19T13:27:40;98296.88;;;12.07;100.00
17505;BME280;8870;50.950;11.762;2023-03-19T13:33:04;98281.19;;;12.10;100.00
17505;BME280;8870;50.950;11.762;2023-03-19T13:38:43;98261.44;;;12.10;100.00
17505;BME280;8870;50.950;11.762;2023-03-19T13:44:29;98259.94;;;12.07;100.00
17505;BME280;8870;50.950;11.762;2023-03-19T13:50:27;98248.47;;;11.97;100.00
17505;BME280;8870;50.950;11.762;2023-03-19T13:55:52;98254.69;;;11.97;100.00
17505;BME280;8870;50.950;11.762;2023-03-19T14:01:43;98253.72;;;11.98;100.00
17505;BME280;8870;50.950;11.762;2023-03-19T14:07:10;98249.63;;;12.11;100.00
17505;BME280;8870;50.950;11.762;2023-03-19T14:12:45;98251.28;;;12.12;100.00
17505;BME280;8870;50.950;11.762;2023-03-19T14:18:04;98245.16;;;12.26;100.00
17505;BME280;8870;50.950;11.762;2023-03-19T14:23:52;98246.59;;;12.37;100.00
17505;BME280;8870;50.950;11.762;2023-03-19T14:29:15;98235.25;;;12.42;100.00
17505;BME280;8870;50.950;11.762;2023-03-19T14:34:48;98230.19;;;12.47;100.00
17505;BME280;8870;50.950;11.762;2023-03-19T14:40:10;98235.50;;;12.63;100.00
17505;BME280;8870;50.950;11.762;2023-03-19T14:45:51;98219.09;;;12.65;100.00
17505;BME280;8870;50.950;11.762;2023-03-19T14:51:30;98224.13;;;12.91;100.00
17505;BME280;8870;50.950;11.762;2023-03-19T14:57:07;98225.47;;;13.34;100.00
17505;BME280;8870;50.950;11.762;2023-03-19T15:02:38;98222.44;;;13.67;100.00
17505;BME280;8870;50.950;11.762;2023-03-19T15:08:12;98216.63;;;14.00;100.00
17505;BME280;8870;50.950;11.762;2023-03-19T15:13:37;98209.22;;;14.24;100.00
17505;BME280;8870;50.950;11.762;2023-03-19T15:19:21;98202.84;;;14.31;100.00
17505;BME280;8870;50.950;11.762;2023-03-19T15:24:41;98196.59;;;14.53;100.00
17505;BME280;8870;50.950;11.762;2023-03-19T15:30:21;98197.59;;;14.67;100.00
17505;BME280;8870;50.950;11.762;2023-03-19T15:36:06;98194.38;;;15.00;100.00
17505;BME280;8870;50.950;11.762;2023-03-19T15:41:43;98197.41;;;14.90;100.00
17505;BME280;8870;50.950;11.762;2023-03-19T15:47:02;98201.72;;;15.06;100.00
17505;BME280;8870;50.950;11.762;2023-03-19T15:52:40;98196.41;;;15.19;100.00
17505;BME280;8870;50.950;11.762;2023-03-19T15:58:04;98199.97;;;15.48;100.00
17505;BME280;8870;50.950;11.762;2023-03-19T16:03:40;98193.38;;;15.29;100.00
17505;BME280;8870;50.950;11.762;2023-03-19T16:09:22;98194.72;;;15.40;100.00
17505;BME280;8870;50.950;11.762;2023-03-19T16:14:42;98209.25;;;15.61;100.00
17505;BME280;8870;50.950;11.762;2023-03-19T16:20:14;98203.94;;;15.81;100.00
17505;BME280;8870;50.950;11.762;2023-03-19T16:25:35;98213.09;;;15.73;100.00
17505;BME280;8870;50.950;11.762;2023-03-19T16:31:17;98214.16;;;15.44;100.00
17505;BME280;8870;50.950;11.762;2023-03-19T16:36:36;98217.78;;;15.29;100.00
17505;BME280;8870;50.950;11.762;2023-03-19T16:42:29;98227.53;;;14.95;100.00
17505;BME280;8870;50.950;11.762;2023-03-19T16:47:52;98217.38;;;14.82;100.00
17505;BME280;8870;50.950;11.762;2023-03-19T16:53:27;98226.31;;;14.61;100.00
17505;BME280;8870;50.950;11.762;2023-03-19T16:58:49;98233.41;;;14.40;100.00
17505;BME280;8870;50.950;11.762;2023-03-19T17:04:20;98242.00;;;14.14;100.00
17505;BME280;8870;50.950;11.762;2023-03-19T17:09:51;98238.41;;;13.92;100.00
17505;BME280;8870;50.950;11.762;2023-03-19T17:15:18;98254.38;;;13.71;100.00
17505;BME280;8870;50.950;11.762;2023-03-19T17:20:54;98260.34;;;13.52;100.00
17505;BME280;8870;50.950;11.762;2023-03-19T17:26:16;98265.75;;;13.29;100.00
17505;BME280;8870;50.950;11.762;2023-03-19T17:31:53;98284.94;;;12.95;100.00
17505;BME280;8870;50.950;11.762;2023-03-19T17:37:13;98294.69;;;12.50;100.00
17505;BME280;8870;50.950;11.762;2023-03-19T17:42:46;98308.78;;;12.29;100.00
17505;BME280;8870;50.950;11.762;2023-03-19T17:48:12;98302.94;;;12.17;100.00
17505;BME280;8870;50.950;11.762;2023-03-19T17:53:49;98299.56;;;12.07;100.00
17505;BME280;8870;50.950;11.762;2023-03-19T17:59:09;98304.66;;;11.93;100.00
17505;BME280;8870;50.950;11.762;2023-03-19T18:04:44;98306.38;;;11.78;100.00
17505;BME280;8870;50.950;11.762;2023-03-19T18:10:03;98304.03;;;11.75;100.00
17505;BME280;8870;50.950;11.762;2023-03-19T18:15:36;98297.94;;;11.72;100.00
17505;BME280;8870;50.950;11.762;2023-03-19T18:20:58;98302.03;;;11.68;100.00
17505;BME280;8870;50.950;11.762;2023-03-19T18:26:29;98288.53;;;11.60;100.00
17505;BME280;8870;50.950;11.762;2023-03-19T18:31:48;98300.00;;;11.54;100.00
17505;BME280;8870;50.950;11.762;2023-03-19T18:37:22;98298.34;;;11.45;100.00
17505;BME280;8870;50.950;11.762;2023-03-19T18:42:41;98303.06;;;11.43;100.00
17505;BME280;8870;50.950;11.762;2023-03-19T18:48:19;98305.59;;;11.36;100.00
17505;BME280;8870;50.950;11.762;2023-03-19T18:53:41;98322.59;;;11.28;100.00
17505;BME280;8870;50.950;11.762;2023-03-19T18:59:20;98318.06;;;11.12;100.00
17505;BME280;8870;50.950;11.762;2023-03-19T19:04:46;98326.28;;;11.02;100.00
17505;BME280;8870;50.950;11.762;2023-03-19T19:10:20;98326.47;;;10.92;100.00
17505;BME280;8870;50.950;11.762;2023-03-19T19:15:39;98346.50;;;10.90;100.00
17505;BME280;8870;50.950;11.762;2023-03-19T19:21:09;98352.38;;;10.85;100.00
17505;BME280;8870;50.950;11.762;2023-03-19T19:26:30;98353.06;;;10.87;100.00
17505;BME280;8870;50.950;11.762;2023-03-19T19:32:02;98358.09;;;10.82;100.00
17505;BME280;8870;50.950;11.762;2023-03-19T19:37:22;98363.66;;;10.81;100.00
17505;BME280;8870;50.950;11.762;2023-03-19T19:42:57;98357.06;;;10.75;100.00
17505;BME280;8870;50.950;11.762;2023-03-19T19:48:17;98362.13;;;10.78;100.00
17505;BME280;8870;50.950;11.762;2023-03-19T19:53:49;98364.84;;;10.78;100.00
17505;BME280;8870;50.950;11.762;2023-03-19T19:59:13;98368.03;;;10.73;100.00
17505;BME280;8870;50.950;11.762;2023-03-19T20:04:44;98374.56;;;10.71;100.00
17505;BME280;8870;50.950;11.762;2023-03-19T20:10:18;98376.06;;;10.65;100.00
17505;BME280;8870;50.950;11.762;2023-03-19T20:15:39;98374.72;;;10.61;100.00
17505;BME280;8870;50.950;11.762;2023-03-19T20:21:11;98381.09;;;10.60;100.00
17505;BME280;8870;50.950;11.762;2023-03-19T20:26:30;98375.34;;;10.55;100.00
17505;BME280;8870;50.950;11.762;2023-03-19T20:32:20;98375.00;;;10.50;100.00
17505;BME280;8870;50.950;11.762;2023-03-19T20:37:41;98379.41;;;10.51;100.00
17505;BME280;8870;50.950;11.762;2023-03-19T20:43:22;98382.75;;;10.53;100.00
17505;BME280;8870;50.950;11.762;2023-03-19T20:48:43;98381.09;;;10.52;100.00
17505;BME280;8870;50.950;11.762;2023-03-19T20:54:16;98373.94;;;10.42;100.00
17505;BME280;8870;50.950;11.762;2023-03-19T20:59:35;98384.16;;;10.30;100.00
17505;BME280;8870;50.950;11.762;2023-03-19T21:05:11;98394.72;;;10.24;100.00
17505;BME280;8870;50.950;11.762;2023-03-19T21:10:31;98382.34;;;10.13;100.00
17505;BME280;8870;50.950;11.762;2023-03-19T21:16:03;98391.56;;;10.02;100.00
17505;BME280;8870;50.950;11.762;2023-03-19T21:21:27;98393.56;;;10.00;100.00
17505;BME280;8870;50.950;11.762;2023-03-19T21:26:59;98399.38;;;9.87;100.00
17505;BME280;8870;50.950;11.762;2023-03-19T21:32:18;98402.84;;;9.79;100.00
17505;BME280;8870;50.950;11.762;2023-03-19T21:37:52;98403.16;;;9.76;100.00
17505;BME280;8870;50.950;11.762;2023-03-19T21:43:16;98408.22;;;9.79;100.00
17505;BME280;8870;50.950;11.762;2023-03-19T21:48:49;98400.94;;;9.71;100.00
17505;BME280;8870;50.950;11.762;2023-03-19T21:54:09;98409.31;;;9.68;100.00
17505;BME280;8870;50.950;11.762;2023-03-19T21:59:43;98421.38;;;9.64;100.00
17505;BME280;8870;50.950;11.762;2023-03-19T22:05:21;98421.38;;;9.64;100.00
17505;BME280;8870;50.950;11.762;2023-03-19T22:10:57;98419.69;;;9.63;100.00
17505;BME280;8870;50.950;11.762;2023-03-19T22:16:19;98412.41;;;9.55;100.00
17505;BME280;8870;50.950;11.762;2023-03-19T22:21:51;98406.50;;;9.52;100.00
17505;BME280;8870;50.950;11.762;2023-03-19T22:27:14;98414.00;;;9.48;100.00
17505;BME280;8870;50.950;11.762;2023-03-19T22:32:47;98422.69;;;9.42;100.00
17505;BME280;8870;50.950;11.762;2023-03-19T22:38:05;98416.16;;;9.45;100.00
17505;BME280;8870;50.950;11.762;2023-03-19T22:43:38;98425.22;;;9.44;100.00
17505;BME280;8870;50.950;11.762;2023-03-19T22:48:57;98426.22;;;9.43;100.00
17505;BME280;8870;50.950;11.762;2023-03-19T22:54:29;98435.16;;;9.43;100.00
17505;BME280;8870;50.950;11.762;2023-03-19T22:59:50;98431.59;;;9.43;100.00
17505;BME280;8870;50.950;11.762;2023-03-19T23:05:28;98431.00;;;9.49;100.00
17505;BME280;8870;50.950;11.762;2023-03-19T23:10:47;98430.84;;;9.50;100.00
17505;BME280;8870;50.950;11.762;2023-03-19T23:16:23;98423.16;;;9.55;100.00
17505;BME280;8870;50.950;11.762;2023-03-19T23:21:42;98430.38;;;9.55;100.00
17505;BME280;8870;50.950;11.762;2023-03-19T23:27:20;98421.84;;;9.60;100.00
17505;BME280;8870;50.950;11.762;2023-03-19T23:32:42;98416.63;;;9.58;100.00
17505;BME280;8870;50.950;11.762;2023-03-19T23:38:14;98420.84;;;9.61;100.00
17505;BME280;8870;50.950;11.762;2023-03-19T23:43:32;98413.47;;;9.63;100.00
17505;BME280;8870;50.950;11.762;2023-03-19T23:49:10;98414.31;;;9.63;100.00
17505;BME280;8870;50.950;11.762;2023-03-19T23:54:30;98425.38;;;9.60;100.00
